Terminal Aerodrome Forecast
Issued by NWS Albuquerque, NM

Home | Current Version | Previous Version | Text Only | Print | Product List | Glossary On
Versions: 1 2 3 4 5 6 7 8 9 10 11 12
000
FTUS45 KABQ 291727
TAFABQ
TAF
KABQ 291727Z 2918/3018 20011KT P6SM FEW110
     FM292030 22012G21KT P6SM SCT120
     FM300200 20008KT P6SM SCT140
     FM300500 14007KT P6SM FEW150
     FM301400 VRB04KT P6SM SKC=

USA.gov is the U.S. government's official web portal to all federal, state and local government web resources and services.